createdAt,value
2023-03-05T00:00:24.428Z,13.10
2023-03-05T00:05:48.127Z,11.10
2023-03-05T00:11:03.970Z,11.10
2023-03-05T00:16:13.835Z,9.70
2023-03-05T00:21:23.908Z,9.80
2023-03-05T00:26:28.496Z,7.30
2023-03-05T00:31:34.536Z,7.90
2023-03-05T00:36:44.218Z,6.60
2023-03-05T00:41:49.978Z,7.70
2023-03-05T00:46:54.314Z,9.40
2023-03-05T00:51:59.400Z,12.30
2023-03-05T00:57:06.127Z,10.00
2023-03-05T01:02:11.623Z,8.00
2023-03-05T01:07:16.006Z,9.50
2023-03-05T01:12:20.598Z,10.00
2023-03-05T01:17:24.768Z,8.10
2023-03-05T01:22:30.270Z,11.20
2023-03-05T01:27:35.812Z,10.50
2023-03-05T01:32:40.154Z,10.80
2023-03-05T01:37:44.900Z,11.70
2023-03-05T01:43:16.880Z,13.70
2023-03-05T01:48:21.131Z,9.70
2023-03-05T01:53:25.614Z,12.10
2023-03-05T01:58:30.523Z,13.40
2023-03-05T02:03:35.242Z,15.10
2023-03-05T02:08:39.544Z,13.10
2023-03-05T02:13:43.301Z,14.80
2023-03-05T02:18:47.501Z,12.70
2023-03-05T02:23:52.823Z,11.40
2023-03-05T02:29:01.852Z,9.40
2023-03-05T02:34:06.826Z,7.30
2023-03-05T02:39:11.650Z,8.60
2023-03-05T02:44:16.133Z,7.40
2023-03-05T02:49:22.568Z,8.10
2023-03-05T02:54:30.538Z,8.40
2023-03-05T02:59:36.158Z,7.90
2023-03-05T03:04:40.865Z,5.20
2023-03-05T03:09:46.904Z,8.50
2023-03-05T03:14:51.494Z,6.40
2023-03-05T03:19:57.391Z,5.50
2023-03-05T03:25:02.675Z,6.50
2023-03-05T03:30:08.294Z,8.20
2023-03-05T03:35:13.893Z,6.70
2023-03-05T03:40:18.831Z,4.10
2023-03-05T03:45:23.645Z,4.00
2023-03-05T03:50:27.968Z,5.20
2023-03-05T03:55:33.076Z,4.50
2023-03-05T04:00:40.521Z,5.00
2023-03-05T04:05:46.167Z,4.60
2023-03-05T04:10:49.867Z,4.80
2023-03-05T04:15:54.804Z,5.10
2023-03-05T04:20:59.384Z,5.00
2023-03-05T04:26:04.110Z,3.80
2023-03-05T04:31:09.133Z,7.30
2023-03-05T04:36:13.572Z,4.40
2023-03-05T04:41:17.899Z,7.90
2023-03-05T04:46:23.443Z,6.20
2023-03-05T04:51:28.131Z,5.60
2023-03-05T04:56:32.868Z,4.70
2023-03-05T05:01:38.455Z,5.50
2023-03-05T05:06:42.583Z,6.60
2023-03-05T05:11:47.142Z,7.10
2023-03-05T05:16:51.958Z,8.10
2023-03-05T05:21:56.373Z,11.00
2023-03-05T05:27:00.565Z,8.30
2023-03-05T05:32:05.634Z,6.70
2023-03-05T05:37:09.894Z,6.40
2023-03-05T05:42:22.933Z,4.80
2023-03-05T05:47:27.318Z,4.20
2023-03-05T05:52:31.732Z,5.40
2023-03-05T05:57:36.092Z,6.60
2023-03-05T06:02:41.213Z,6.50
2023-03-05T06:07:45.569Z,6.60
2023-03-05T06:12:50.399Z,5.20
2023-03-05T06:17:55.344Z,5.20
2023-03-05T06:22:58.947Z,6.40
2023-03-05T06:28:03.011Z,10.80
2023-03-05T06:33:08.514Z,12.70
2023-03-05T06:38:13.287Z,14.50
2023-03-05T06:43:17.874Z,16.50
2023-03-05T06:48:22.402Z,13.40
2023-03-05T06:53:28.293Z,16.60
2023-03-05T06:58:32.563Z,24.20
2023-03-05T07:03:36.953Z,21.10
2023-03-05T07:08:41.135Z,16.70
2023-03-05T07:13:48.072Z,20.70
2023-03-05T07:18:52.826Z,29.30
2023-03-05T07:23:59.076Z,27.00
2023-03-05T07:29:04.742Z,17.10
2023-03-05T07:34:08.493Z,21.60
2023-03-05T07:39:13.249Z,17.70
2023-03-05T07:44:18.626Z,12.60
2023-03-05T07:49:24.090Z,14.20
2023-03-05T07:54:27.863Z,14.60
2023-03-05T07:59:31.576Z,13.80
2023-03-05T08:04:36.492Z,12.40
2023-03-05T08:09:43.082Z,12.00
2023-03-05T08:14:48.339Z,13.40
2023-03-05T08:19:52.085Z,13.70
2023-03-05T08:24:57.523Z,10.20
2023-03-05T08:30:03.037Z,7.90
2023-03-05T08:35:12.424Z,6.80
2023-03-05T08:40:18.372Z,7.40
2023-03-05T08:45:22.126Z,10.00
2023-03-05T08:50:27.516Z,10.60
2023-03-05T08:55:31.293Z,9.00
2023-03-05T09:00:34.739Z,4.10
2023-03-05T09:05:39.161Z,4.50
2023-03-05T09:10:44.229Z,6.90
2023-03-05T09:15:56.607Z,6.30
2023-03-05T09:21:05.183Z,9.30
2023-03-05T09:26:10.412Z,14.70
2023-03-05T09:31:14.690Z,10.10
2023-03-05T09:36:31.991Z,11.20
2023-03-05T09:41:53.799Z,5.00
2023-03-05T09:47:15.391Z,9.40
2023-03-05T09:52:29.540Z,7.60
2023-03-05T09:57:42.229Z,12.30
2023-03-05T10:02:52.453Z,10.20
2023-03-05T10:08:01.393Z,11.60
2023-03-05T10:13:12.851Z,9.70
2023-03-05T10:18:57.392Z,11.60
2023-03-05T10:24:17.117Z,6.70
2023-03-05T10:30:08.593Z,7.60
2023-03-05T10:36:00.520Z,5.80
2023-03-05T10:41:33.089Z,6.50
2023-03-05T10:46:38.383Z,6.10
2023-03-05T10:51:57.911Z,6.70
2023-03-05T10:57:22.423Z,12.30
2023-03-05T11:02:28.767Z,6.50
2023-03-05T11:07:35.962Z,8.60
2023-03-05T11:12:42.511Z,8.90
2023-03-05T11:18:16.533Z,7.70
2023-03-05T11:23:25.272Z,7.00
2023-03-05T11:28:39.529Z,4.20
2023-03-05T11:34:07.051Z,5.20
2023-03-05T11:39:22.676Z,5.80
2023-03-05T11:44:37.909Z,7.30
2023-03-05T11:49:46.556Z,7.70
2023-03-05T11:54:53.719Z,8.80
2023-03-05T11:59:59.195Z,5.80
2023-03-05T12:05:06.703Z,5.40
2023-03-05T12:10:19.377Z,9.70
2023-03-05T12:15:46.886Z,7.90
2023-03-05T12:21:26.447Z,4.40
2023-03-05T12:27:24.358Z,6.00
2023-03-05T12:32:48.604Z,5.60
2023-03-05T12:37:54.007Z,6.20
2023-03-05T12:43:01.248Z,5.70
2023-03-05T12:48:11.170Z,6.90
2023-03-05T12:53:18.748Z,6.20
2023-03-05T12:58:43.961Z,8.90
2023-03-05T13:04:15.346Z,5.40
2023-03-05T13:09:28.090Z,6.10
2023-03-05T13:14:40.964Z,5.00
2023-03-05T13:19:46.388Z,9.60
2023-03-05T13:25:12.950Z,5.90
2023-03-05T13:30:26.168Z,8.90
2023-03-05T13:40:49.197Z,5.40
2023-03-05T13:45:57.174Z,4.80
2023-03-05T13:51:02.275Z,9.40
2023-03-05T13:56:13.126Z,6.50
2023-03-05T14:01:24.327Z,6.60
2023-03-05T14:06:31.210Z,6.60
2023-03-05T14:11:36.917Z,7.40
2023-03-05T14:16:42.179Z,13.10
2023-03-05T14:21:55.030Z,5.10
2023-03-05T14:32:26.168Z,5.90
2023-03-05T14:37:47.155Z,8.10
2023-03-05T14:42:57.683Z,15.70
2023-03-05T14:48:06.986Z,8.10
2023-03-05T14:53:24.083Z,9.60
2023-03-05T14:58:32.860Z,17.50
2023-03-05T15:03:39.946Z,17.40
2023-03-05T15:08:44.883Z,9.70
2023-03-05T15:13:53.480Z,8.70
2023-03-05T15:19:08.379Z,6.40
2023-03-05T15:24:17.748Z,7.60
2023-03-05T15:29:24.463Z,5.00
2023-03-05T15:34:30.341Z,5.10
2023-03-05T15:39:35.679Z,6.70
2023-03-05T15:44:42.859Z,6.10
2023-03-05T15:49:47.708Z,4.90
2023-03-05T15:54:55.627Z,11.10
2023-03-05T16:00:04.326Z,12.40
2023-03-05T16:05:17.724Z,10.50
2023-03-05T16:10:30.532Z,9.40
2023-03-05T16:15:40.424Z,10.30
2023-03-05T16:20:47.092Z,10.90
2023-03-05T16:26:02.588Z,5.80
2023-03-05T16:31:08.824Z,9.50
2023-03-05T16:36:29.384Z,14.00
2023-03-05T16:41:40.334Z,8.50
2023-03-05T16:46:50.517Z,6.60
2023-03-05T16:52:01.424Z,10.30
2023-03-05T16:57:11.449Z,13.40
2023-03-05T17:02:20.145Z,8.60
2023-03-05T17:07:27.582Z,10.80
2023-03-05T17:12:37.626Z,12.10
2023-03-05T17:17:52.182Z,10.30
2023-03-05T17:23:03.299Z,16.40
2023-03-05T17:28:10.342Z,16.20
2023-03-05T17:33:31.929Z,17.20
2023-03-05T17:38:43.513Z,10.20
2023-03-05T17:43:52.682Z,14.80
2023-03-05T17:49:02.122Z,13.90
2023-03-05T17:54:13.941Z,15.60
2023-03-05T17:59:22.712Z,14.00
2023-03-05T18:04:35.647Z,17.40
2023-03-05T18:09:44.664Z,11.00
2023-03-05T18:14:53.583Z,14.90
2023-03-05T18:20:03.898Z,18.90
2023-03-05T18:25:13.409Z,17.10
2023-03-05T18:30:20.721Z,16.30
2023-03-05T18:35:30.230Z,16.80
2023-03-05T18:40:40.259Z,18.00
2023-03-05T18:45:52.608Z,13.60
2023-03-05T18:51:00.236Z,14.40
2023-03-05T18:56:12.538Z,15.40
2023-03-05T19:01:21.873Z,16.20
2023-03-05T19:06:30.047Z,15.60
2023-03-05T19:11:38.631Z,15.60
2023-03-05T19:16:47.204Z,13.20
2023-03-05T19:21:59.225Z,14.10
2023-03-05T19:27:15.475Z,14.00
2023-03-05T19:32:25.226Z,17.10
2023-03-05T19:37:33.225Z,16.10
2023-03-05T19:42:44.313Z,13.00
2023-03-05T19:48:34.875Z,13.10
2023-03-05T19:53:54.798Z,22.50
2023-03-05T19:59:07.157Z,13.80
2023-03-05T20:04:22.097Z,12.80
2023-03-05T20:09:30.208Z,13.50
2023-03-05T20:14:45.057Z,10.40
2023-03-05T20:20:35.394Z,10.80
2023-03-05T20:25:53.176Z,11.70
2023-03-05T20:31:01.638Z,12.60
2023-03-05T20:36:10.777Z,12.80
2023-03-05T20:41:25.373Z,12.10
2023-03-05T20:47:26.464Z,11.60
2023-03-05T20:52:34.764Z,14.30
2023-03-05T20:57:41.225Z,12.30
2023-03-05T21:02:47.865Z,15.40
2023-03-05T21:07:57.633Z,12.20
2023-03-05T21:13:06.826Z,10.30
2023-03-05T21:18:13.566Z,15.40
2023-03-05T21:23:19.225Z,14.90
2023-03-05T21:28:24.813Z,14.60
2023-03-05T21:33:31.628Z,15.40
2023-03-05T21:38:37.182Z,13.30
2023-03-05T21:43:42.575Z,12.70
2023-03-05T21:48:48.068Z,11.80
2023-03-05T21:53:52.142Z,10.00
2023-03-05T21:58:56.229Z,11.40
2023-03-05T22:04:00.730Z,14.50
2023-03-05T22:09:06.199Z,11.90
2023-03-05T22:14:10.838Z,8.30
2023-03-05T22:19:14.854Z,12.10
2023-03-05T22:24:18.627Z,13.70
2023-03-05T22:29:22.402Z,11.80
2023-03-05T22:34:26.165Z,16.90
2023-03-05T22:39:30.042Z,11.70
2023-03-05T22:44:33.848Z,12.50
2023-03-05T22:49:37.532Z,9.40
2023-03-05T22:54:41.379Z,10.60
2023-03-05T22:59:45.312Z,13.20
2023-03-05T23:05:01.821Z,11.70
2023-03-05T23:10:08.889Z,12.20
2023-03-05T23:15:15.607Z,15.10
2023-03-05T23:20:21.532Z,9.70
2023-03-05T23:25:28.292Z,9.50
2023-03-05T23:30:35.023Z,12.30
2023-03-05T23:35:49.190Z,9.20
2023-03-05T23:40:55.299Z,10.70
2023-03-05T23:46:02.538Z,8.80
2023-03-05T23:51:10.576Z,11.70
2023-03-05T23:56:14.379Z,10.40
